sensor_id;sensor_type;location;lat;lon;timestamp;P1;durP1;ratioP1;P2;durP2;ratioP2
3591;SDS011;1810;48.720;9.094;2023-05-21T00:00:43;768.15;;;718.63;;
3591;SDS011;1810;48.720;9.094;2023-05-21T00:03:11;762.60;;;713.97;;
3591;SDS011;1810;48.720;9.094;2023-05-21T00:05:41;774.58;;;725.75;;
3591;SDS011;1810;48.720;9.094;2023-05-21T00:08:12;774.42;;;724.15;;
3591;SDS011;1810;48.720;9.094;2023-05-21T00:10:40;754.38;;;707.05;;
3591;SDS011;1810;48.720;9.094;2023-05-21T00:13:10;740.47;;;694.67;;
3591;SDS011;1810;48.720;9.094;2023-05-21T00:15:39;751.20;;;704.40;;
3591;SDS011;1810;48.720;9.094;2023-05-21T00:18:07;786.88;;;736.63;;
3591;SDS011;1810;48.720;9.094;2023-05-21T00:20:36;747.63;;;701.15;;
3591;SDS011;1810;48.720;9.094;2023-05-21T00:23:06;755.22;;;708.38;;
3591;SDS011;1810;48.720;9.094;2023-05-21T00:25:35;725.25;;;680.35;;
3591;SDS011;1810;48.720;9.094;2023-05-21T00:28:03;755.50;;;708.38;;
3591;SDS011;1810;48.720;9.094;2023-05-21T00:30:33;757.90;;;709.45;;
3591;SDS011;1810;48.720;9.094;2023-05-21T00:33:01;764.13;;;715.85;;
3591;SDS011;1810;48.720;9.094;2023-05-21T00:35:30;782.40;;;732.25;;
3591;SDS011;1810;48.720;9.094;2023-05-21T00:37:59;767.70;;;719.65;;
3591;SDS011;1810;48.720;9.094;2023-05-21T00:40:27;707.72;;;664.83;;
3591;SDS011;1810;48.720;9.094;2023-05-21T00:42:57;798.17;;;746.78;;
3591;SDS011;1810;48.720;9.094;2023-05-21T00:45:26;763.38;;;714.67;;
3591;SDS011;1810;48.720;9.094;2023-05-21T00:47:56;771.85;;;722.22;;
3591;SDS011;1810;48.720;9.094;2023-05-21T00:50:24;755.40;;;707.42;;
3591;SDS011;1810;48.720;9.094;2023-05-21T00:52:53;786.00;;;735.45;;
3591;SDS011;1810;48.720;9.094;2023-05-21T00:55:21;783.67;;;733.28;;
3591;SDS011;1810;48.720;9.094;2023-05-21T00:57:50;741.70;;;695.67;;
3591;SDS011;1810;48.720;9.094;2023-05-21T01:00:18;775.63;;;725.53;;
3591;SDS011;1810;48.720;9.094;2023-05-21T01:02:47;754.45;;;706.33;;
3591;SDS011;1810;48.720;9.094;2023-05-21T01:05:17;755.65;;;707.97;;
3591;SDS011;1810;48.720;9.094;2023-05-21T01:07:47;750.80;;;703.67;;
3591;SDS011;1810;48.720;9.094;2023-05-21T01:10:15;719.78;;;675.72;;
3591;SDS011;1810;48.720;9.094;2023-05-21T01:12:44;723.10;;;678.47;;
3591;SDS011;1810;48.720;9.094;2023-05-21T01:15:12;767.95;;;718.85;;
3591;SDS011;1810;48.720;9.094;2023-05-21T01:17:41;759.83;;;711.97;;
3591;SDS011;1810;48.720;9.094;2023-05-21T01:20:11;736.08;;;690.40;;
3591;SDS011;1810;48.720;9.094;2023-05-21T01:22:47;785.95;;;735.35;;
3591;SDS011;1810;48.720;9.094;2023-05-21T01:25:18;763.70;;;714.80;;
3591;SDS011;1810;48.720;9.094;2023-05-21T01:27:46;771.65;;;721.65;;
3591;SDS011;1810;48.720;9.094;2023-05-21T01:30:15;763.35;;;714.70;;
3591;SDS011;1810;48.720;9.094;2023-05-21T01:32:47;774.92;;;724.70;;
3591;SDS011;1810;48.720;9.094;2023-05-21T01:35:19;773.75;;;724.78;;
3591;SDS011;1810;48.720;9.094;2023-05-21T01:37:52;782.08;;;732.28;;
3591;SDS011;1810;48.720;9.094;2023-05-21T01:40:28;733.85;;;688.75;;
3591;SDS011;1810;48.720;9.094;2023-05-21T01:43:01;769.13;;;719.70;;
3591;SDS011;1810;48.720;9.094;2023-05-21T01:45:30;752.83;;;705.85;;
3591;SDS011;1810;48.720;9.094;2023-05-21T01:47:59;775.42;;;726.28;;
3591;SDS011;1810;48.720;9.094;2023-05-21T01:50:28;745.10;;;699.13;;
3591;SDS011;1810;48.720;9.094;2023-05-21T01:52:59;781.15;;;730.78;;
3591;SDS011;1810;48.720;9.094;2023-05-21T01:55:29;781.22;;;730.90;;
3591;SDS011;1810;48.720;9.094;2023-05-21T01:57:57;776.78;;;726.72;;
3591;SDS011;1810;48.720;9.094;2023-05-21T02:00:27;771.10;;;722.42;;
3591;SDS011;1810;48.720;9.094;2023-05-21T02:02:57;736.40;;;690.40;;
3591;SDS011;1810;48.720;9.094;2023-05-21T02:05:26;766.30;;;717.40;;
3591;SDS011;1810;48.720;9.094;2023-05-21T02:07:54;748.50;;;701.58;;
3591;SDS011;1810;48.720;9.094;2023-05-21T02:10:26;715.53;;;671.78;;
3591;SDS011;1810;48.720;9.094;2023-05-21T02:12:55;789.72;;;739.70;;
3591;SDS011;1810;48.720;9.094;2023-05-21T02:15:24;718.88;;;674.72;;
3591;SDS011;1810;48.720;9.094;2023-05-21T02:17:52;745.17;;;699.05;;
3591;SDS011;1810;48.720;9.094;2023-05-21T02:20:21;767.00;;;718.22;;
3591;SDS011;1810;48.720;9.094;2023-05-21T02:22:49;714.38;;;671.40;;
3591;SDS011;1810;48.720;9.094;2023-05-21T02:25:18;766.30;;;716.95;;
3591;SDS011;1810;48.720;9.094;2023-05-21T02:27:48;761.95;;;713.38;;
3591;SDS011;1810;48.720;9.094;2023-05-21T02:30:19;740.13;;;693.78;;
3591;SDS011;1810;48.720;9.094;2023-05-21T02:32:48;773.15;;;724.40;;
3591;SDS011;1810;48.720;9.094;2023-05-21T02:35:16;710.47;;;667.08;;
3591;SDS011;1810;48.720;9.094;2023-05-21T02:37:45;781.20;;;730.80;;
3591;SDS011;1810;48.720;9.094;2023-05-21T02:40:14;746.67;;;699.78;;
3591;SDS011;1810;48.720;9.094;2023-05-21T02:42:42;759.90;;;711.40;;
3591;SDS011;1810;48.720;9.094;2023-05-21T02:45:12;746.80;;;700.80;;
3591;SDS011;1810;48.720;9.094;2023-05-21T02:47:40;784.47;;;733.90;;
3591;SDS011;1810;48.720;9.094;2023-05-21T02:50:09;797.75;;;745.78;;
3591;SDS011;1810;48.720;9.094;2023-05-21T02:52:37;785.05;;;734.33;;
3591;SDS011;1810;48.720;9.094;2023-05-21T02:55:07;793.20;;;741.88;;
3591;SDS011;1810;48.720;9.094;2023-05-21T02:57:35;775.03;;;726.15;;
3591;SDS011;1810;48.720;9.094;2023-05-21T03:00:04;739.00;;;692.75;;
3591;SDS011;1810;48.720;9.094;2023-05-21T03:02:36;772.33;;;723.33;;
3591;SDS011;1810;48.720;9.094;2023-05-21T03:05:05;769.35;;;720.40;;
3591;SDS011;1810;48.720;9.094;2023-05-21T03:07:34;802.88;;;750.83;;
3591;SDS011;1810;48.720;9.094;2023-05-21T03:10:02;781.50;;;730.70;;
3591;SDS011;1810;48.720;9.094;2023-05-21T03:12:31;786.03;;;735.70;;
3591;SDS011;1810;48.720;9.094;2023-05-21T03:15:00;786.35;;;735.42;;
3591;SDS011;1810;48.720;9.094;2023-05-21T03:17:28;766.10;;;716.63;;
3591;SDS011;1810;48.720;9.094;2023-05-21T03:19:59;753.58;;;706.92;;
3591;SDS011;1810;48.720;9.094;2023-05-21T03:22:30;788.95;;;737.38;;
3591;SDS011;1810;48.720;9.094;2023-05-21T03:24:58;774.22;;;725.55;;
3591;SDS011;1810;48.720;9.094;2023-05-21T03:27:27;785.90;;;735.65;;
3591;SDS011;1810;48.720;9.094;2023-05-21T03:29:56;725.90;;;681.90;;
3591;SDS011;1810;48.720;9.094;2023-05-21T03:32:24;798.95;;;747.10;;
3591;SDS011;1810;48.720;9.094;2023-05-21T03:34:53;756.40;;;708.38;;
3591;SDS011;1810;48.720;9.094;2023-05-21T03:37:23;744.05;;;698.05;;
3591;SDS011;1810;48.720;9.094;2023-05-21T03:39:51;803.00;;;750.00;;
3591;SDS011;1810;48.720;9.094;2023-05-21T03:42:19;718.83;;;674.75;;
3591;SDS011;1810;48.720;9.094;2023-05-21T03:44:48;785.05;;;734.88;;
3591;SDS011;1810;48.720;9.094;2023-05-21T03:47:16;770.75;;;722.65;;
3591;SDS011;1810;48.720;9.094;2023-05-21T03:49:45;769.50;;;719.65;;
3591;SDS011;1810;48.720;9.094;2023-05-21T03:52:13;795.35;;;744.40;;
3591;SDS011;1810;48.720;9.094;2023-05-21T03:54:43;775.92;;;726.60;;
3591;SDS011;1810;48.720;9.094;2023-05-21T03:57:11;801.63;;;749.83;;
3591;SDS011;1810;48.720;9.094;2023-05-21T03:59:39;792.65;;;740.75;;
3591;SDS011;1810;48.720;9.094;2023-05-21T04:02:08;795.88;;;744.17;;
3591;SDS011;1810;48.720;9.094;2023-05-21T04:04:36;767.60;;;718.58;;
3591;SDS011;1810;48.720;9.094;2023-05-21T04:07:05;777.15;;;727.72;;
3591;SDS011;1810;48.720;9.094;2023-05-21T04:09:39;811.55;;;758.20;;
3591;SDS011;1810;48.720;9.094;2023-05-21T04:12:09;742.83;;;697.25;;
3591;SDS011;1810;48.720;9.094;2023-05-21T04:14:38;793.17;;;741.63;;
3591;SDS011;1810;48.720;9.094;2023-05-21T04:17:06;795.45;;;743.55;;
3591;SDS011;1810;48.720;9.094;2023-05-21T04:19:34;773.10;;;723.75;;
3591;SDS011;1810;48.720;9.094;2023-05-21T04:22:03;746.25;;;699.58;;
3591;SDS011;1810;48.720;9.094;2023-05-21T04:24:32;731.40;;;686.10;;
3591;SDS011;1810;48.720;9.094;2023-05-21T04:27:00;786.35;;;736.38;;
3591;SDS011;1810;48.720;9.094;2023-05-21T04:29:30;780.38;;;730.55;;
3591;SDS011;1810;48.720;9.094;2023-05-21T04:31:58;735.08;;;688.58;;
3591;SDS011;1810;48.720;9.094;2023-05-21T04:34:26;812.30;;;759.30;;
3591;SDS011;1810;48.720;9.094;2023-05-21T04:36:58;772.70;;;722.55;;
3591;SDS011;1810;48.720;9.094;2023-05-21T04:39:27;778.17;;;728.53;;
3591;SDS011;1810;48.720;9.094;2023-05-21T04:41:56;807.85;;;754.40;;
3591;SDS011;1810;48.720;9.094;2023-05-21T04:44:25;796.90;;;744.83;;
3591;SDS011;1810;48.720;9.094;2023-05-21T04:46:54;807.20;;;754.35;;
3591;SDS011;1810;48.720;9.094;2023-05-21T04:49:23;801.65;;;749.80;;
3591;SDS011;1810;48.720;9.094;2023-05-21T04:51:52;803.63;;;750.97;;
3591;SDS011;1810;48.720;9.094;2023-05-21T04:54:20;815.15;;;761.58;;
3591;SDS011;1810;48.720;9.094;2023-05-21T04:56:49;804.00;;;751.90;;
3591;SDS011;1810;48.720;9.094;2023-05-21T04:59:17;808.72;;;756.38;;
3591;SDS011;1810;48.720;9.094;2023-05-21T05:01:46;811.90;;;758.95;;
3591;SDS011;1810;48.720;9.094;2023-05-21T05:04:16;825.15;;;771.05;;
3591;SDS011;1810;48.720;9.094;2023-05-21T05:06:45;793.22;;;742.10;;
3591;SDS011;1810;48.720;9.094;2023-05-21T05:09:13;791.75;;;740.33;;
3591;SDS011;1810;48.720;9.094;2023-05-21T05:11:42;788.53;;;737.92;;
3591;SDS011;1810;48.720;9.094;2023-05-21T05:14:10;786.55;;;735.55;;
3591;SDS011;1810;48.720;9.094;2023-05-21T05:16:39;773.33;;;723.80;;
3591;SDS011;1810;48.720;9.094;2023-05-21T05:19:08;782.20;;;732.22;;
3591;SDS011;1810;48.720;9.094;2023-05-21T05:21:39;770.47;;;721.38;;
3591;SDS011;1810;48.720;9.094;2023-05-21T05:24:08;757.10;;;709.45;;
3591;SDS011;1810;48.720;9.094;2023-05-21T05:26:36;763.45;;;715.40;;
3591;SDS011;1810;48.720;9.094;2023-05-21T05:29:04;756.85;;;709.22;;
3591;SDS011;1810;48.720;9.094;2023-05-21T05:31:33;744.92;;;698.42;;
3591;SDS011;1810;48.720;9.094;2023-05-21T05:34:02;741.60;;;695.38;;
3591;SDS011;1810;48.720;9.094;2023-05-21T05:36:30;744.88;;;697.55;;
3591;SDS011;1810;48.720;9.094;2023-05-21T05:39:00;749.03;;;701.75;;
3591;SDS011;1810;48.720;9.094;2023-05-21T05:41:28;768.85;;;719.13;;
3591;SDS011;1810;48.720;9.094;2023-05-21T05:43:57;766.20;;;717.35;;
3591;SDS011;1810;48.720;9.094;2023-05-21T05:46:25;774.78;;;724.45;;
3591;SDS011;1810;48.720;9.094;2023-05-21T05:48:55;804.35;;;751.33;;
3591;SDS011;1810;48.720;9.094;2023-05-21T05:51:23;816.15;;;762.03;;
3591;SDS011;1810;48.720;9.094;2023-05-21T05:53:51;825.65;;;770.75;;
3591;SDS011;1810;48.720;9.094;2023-05-21T05:56:21;828.22;;;773.58;;
3591;SDS011;1810;48.720;9.094;2023-05-21T05:58:49;843.50;;;787.47;;
3591;SDS011;1810;48.720;9.094;2023-05-21T06:01:18;858.92;;;800.85;;
3591;SDS011;1810;48.720;9.094;2023-05-21T06:03:47;825.88;;;771.03;;
3591;SDS011;1810;48.720;9.094;2023-05-21T06:06:16;830.97;;;775.97;;
3591;SDS011;1810;48.720;9.094;2023-05-21T06:08:46;808.40;;;754.95;;
3591;SDS011;1810;48.720;9.094;2023-05-21T06:11:14;804.22;;;751.58;;
3591;SDS011;1810;48.720;9.094;2023-05-21T06:13:45;802.80;;;750.03;;
3591;SDS011;1810;48.720;9.094;2023-05-21T06:16:14;807.92;;;755.13;;
3591;SDS011;1810;48.720;9.094;2023-05-21T06:18:43;808.58;;;755.28;;
3591;SDS011;1810;48.720;9.094;2023-05-21T06:21:11;817.08;;;762.85;;
3591;SDS011;1810;48.720;9.094;2023-05-21T06:23:40;821.38;;;767.22;;
3591;SDS011;1810;48.720;9.094;2023-05-21T06:26:08;859.83;;;801.63;;
3591;SDS011;1810;48.720;9.094;2023-05-21T06:28:56;823.67;;;769.33;;
3591;SDS011;1810;48.720;9.094;2023-05-21T06:31:25;823.90;;;769.03;;
3591;SDS011;1810;48.720;9.094;2023-05-21T06:33:54;820.38;;;765.60;;
3591;SDS011;1810;48.720;9.094;2023-05-21T06:36:27;827.08;;;772.20;;
3591;SDS011;1810;48.720;9.094;2023-05-21T06:39:09;825.15;;;770.72;;
3591;SDS011;1810;48.720;9.094;2023-05-21T06:41:40;825.70;;;770.42;;
3591;SDS011;1810;48.720;9.094;2023-05-21T06:44:09;831.65;;;776.35;;
3591;SDS011;1810;48.720;9.094;2023-05-21T06:46:38;815.72;;;761.75;;
3591;SDS011;1810;48.720;9.094;2023-05-21T06:49:07;822.33;;;767.92;;
3591;SDS011;1810;48.720;9.094;2023-05-21T06:51:39;812.10;;;757.72;;
3591;SDS011;1810;48.720;9.094;2023-05-21T06:54:08;811.65;;;758.28;;
3591;SDS011;1810;48.720;9.094;2023-05-21T06:56:36;819.67;;;765.70;;
3591;SDS011;1810;48.720;9.094;2023-05-21T06:59:05;828.60;;;773.72;;
3591;SDS011;1810;48.720;9.094;2023-05-21T07:01:35;861.50;;;802.85;;
3591;SDS011;1810;48.720;9.094;2023-05-21T07:04:07;832.47;;;776.67;;
3591;SDS011;1810;48.720;9.094;2023-05-21T07:06:36;841.72;;;785.72;;
3591;SDS011;1810;48.720;9.094;2023-05-21T07:09:05;859.55;;;801.78;;
3591;SDS011;1810;48.720;9.094;2023-05-21T07:11:33;849.63;;;792.15;;
3591;SDS011;1810;48.720;9.094;2023-05-21T07:14:02;848.25;;;791.08;;
3591;SDS011;1810;48.720;9.094;2023-05-21T07:16:30;879.33;;;818.40;;
3591;SDS011;1810;48.720;9.094;2023-05-21T07:19:00;863.95;;;805.47;;
3591;SDS011;1810;48.720;9.094;2023-05-21T07:21:29;895.45;;;832.53;;
3591;SDS011;1810;48.720;9.094;2023-05-21T07:24:01;856.22;;;798.15;;
3591;SDS011;1810;48.720;9.094;2023-05-21T07:26:29;866.80;;;807.65;;
3591;SDS011;1810;48.720;9.094;2023-05-21T07:28:58;849.55;;;792.30;;
3591;SDS011;1810;48.720;9.094;2023-05-21T07:31:26;853.70;;;796.22;;
3591;SDS011;1810;48.720;9.094;2023-05-21T07:33:55;843.15;;;786.42;;
3591;SDS011;1810;48.720;9.094;2023-05-21T07:36:24;855.17;;;796.92;;
3591;SDS011;1810;48.720;9.094;2023-05-21T07:38:53;868.60;;;809.10;;
3591;SDS011;1810;48.720;9.094;2023-05-21T07:41:21;878.80;;;817.80;;
3591;SDS011;1810;48.720;9.094;2023-05-21T07:43:49;873.67;;;814.03;;
3591;SDS011;1810;48.720;9.094;2023-05-21T07:46:18;869.47;;;810.03;;
3591;SDS011;1810;48.720;9.094;2023-05-21T07:48:46;865.47;;;806.58;;
3591;SDS011;1810;48.720;9.094;2023-05-21T07:51:15;853.17;;;795.40;;
3591;SDS011;1810;48.720;9.094;2023-05-21T07:53:45;861.67;;;803.38;;
3591;SDS011;1810;48.720;9.094;2023-05-21T07:56:13;867.67;;;808.83;;
3591;SDS011;1810;48.720;9.094;2023-05-21T07:58:42;867.60;;;807.90;;
3591;SDS011;1810;48.720;9.094;2023-05-21T08:01:11;848.03;;;790.78;;
3591;SDS011;1810;48.720;9.094;2023-05-21T08:03:39;862.85;;;803.70;;
3591;SDS011;1810;48.720;9.094;2023-05-21T08:06:08;871.20;;;811.83;;
3591;SDS011;1810;48.720;9.094;2023-05-21T08:08:36;876.10;;;815.78;;
3591;SDS011;1810;48.720;9.094;2023-05-21T08:11:06;868.40;;;809.15;;
3591;SDS011;1810;48.720;9.094;2023-05-21T08:13:34;835.90;;;779.88;;
3591;SDS011;1810;48.720;9.094;2023-05-21T08:16:03;868.47;;;809.30;;
3591;SDS011;1810;48.720;9.094;2023-05-21T08:18:32;870.08;;;810.47;;
3591;SDS011;1810;48.720;9.094;2023-05-21T08:21:01;862.17;;;803.50;;
3591;SDS011;1810;48.720;9.094;2023-05-21T08:23:29;845.60;;;788.85;;
3591;SDS011;1810;48.720;9.094;2023-05-21T08:25:58;861.95;;;802.50;;
3591;SDS011;1810;48.720;9.094;2023-05-21T08:28:28;843.80;;;787.00;;
3591;SDS011;1810;48.720;9.094;2023-05-21T08:30:57;939.35;;;869.78;;
3591;SDS011;1810;48.720;9.094;2023-05-21T08:33:26;852.92;;;794.92;;
3591;SDS011;1810;48.720;9.094;2023-05-21T08:35:54;875.40;;;815.33;;
3591;SDS011;1810;48.720;9.094;2023-05-21T08:38:23;872.97;;;813.75;;
3591;SDS011;1810;48.720;9.094;2023-05-21T08:40:54;864.85;;;805.63;;
3591;SDS011;1810;48.720;9.094;2023-05-21T08:43:23;876.90;;;815.63;;
3591;SDS011;1810;48.720;9.094;2023-05-21T08:45:56;846.88;;;789.78;;
3591;SDS011;1810;48.720;9.094;2023-05-21T08:48:25;877.17;;;817.20;;
3591;SDS011;1810;48.720;9.094;2023-05-21T08:50:53;861.60;;;802.70;;
3591;SDS011;1810;48.720;9.094;2023-05-21T08:53:22;859.95;;;801.28;;
3591;SDS011;1810;48.720;9.094;2023-05-21T08:55:54;850.60;;;792.72;;
3591;SDS011;1810;48.720;9.094;2023-05-21T08:58:23;863.38;;;804.72;;
3591;SDS011;1810;48.720;9.094;2023-05-21T09:00:52;826.65;;;771.55;;
3591;SDS011;1810;48.720;9.094;2023-05-21T09:03:22;864.60;;;805.75;;
3591;SDS011;1810;48.720;9.094;2023-05-21T09:05:52;851.45;;;793.58;;
3591;SDS011;1810;48.720;9.094;2023-05-21T09:08:23;862.05;;;803.38;;
3591;SDS011;1810;48.720;9.094;2023-05-21T09:10:53;953.53;;;881.53;;
3591;SDS011;1810;48.720;9.094;2023-05-21T09:13:22;863.63;;;805.25;;
3591;SDS011;1810;48.720;9.094;2023-05-21T09:15:52;858.30;;;799.40;;
3591;SDS011;1810;48.720;9.094;2023-05-21T09:18:21;892.88;;;830.97;;
3591;SDS011;1810;48.720;9.094;2023-05-21T09:20:52;867.35;;;807.58;;
3591;SDS011;1810;48.720;9.094;2023-05-21T09:23:21;872.33;;;812.67;;
3591;SDS011;1810;48.720;9.094;2023-05-21T09:25:50;914.80;;;848.78;;
3591;SDS011;1810;48.720;9.094;2023-05-21T09:28:18;868.63;;;808.67;;
3591;SDS011;1810;48.720;9.094;2023-05-21T09:30:47;855.53;;;797.40;;
3591;SDS011;1810;48.720;9.094;2023-05-21T09:33:26;849.58;;;791.78;;
3591;SDS011;1810;48.720;9.094;2023-05-21T09:35:56;867.90;;;807.80;;
3591;SDS011;1810;48.720;9.094;2023-05-21T09:38:24;877.55;;;816.67;;
3591;SDS011;1810;48.720;9.094;2023-05-21T09:40:54;876.85;;;816.30;;
3591;SDS011;1810;48.720;9.094;2023-05-21T09:43:23;898.20;;;834.58;;
3591;SDS011;1810;48.720;9.094;2023-05-21T09:45:52;868.13;;;808.42;;
3591;SDS011;1810;48.720;9.094;2023-05-21T09:48:33;879.67;;;819.05;;
3591;SDS011;1810;48.720;9.094;2023-05-21T09:51:08;874.95;;;814.85;;
3591;SDS011;1810;48.720;9.094;2023-05-21T09:53:47;867.55;;;808.47;;
3591;SDS011;1810;48.720;9.094;2023-05-21T09:56:20;925.38;;;858.85;;
3591;SDS011;1810;48.720;9.094;2023-05-21T09:58:50;868.45;;;809.05;;
3591;SDS011;1810;48.720;9.094;2023-05-21T10:01:22;901.17;;;837.83;;
3591;SDS011;1810;48.720;9.094;2023-05-21T10:03:54;884.22;;;822.70;;
3591;SDS011;1810;48.720;9.094;2023-05-21T10:06:25;863.70;;;804.92;;
3591;SDS011;1810;48.720;9.094;2023-05-21T10:08:57;859.80;;;801.35;;
3591;SDS011;1810;48.720;9.094;2023-05-21T10:11:31;835.40;;;779.17;;
3591;SDS011;1810;48.720;9.094;2023-05-21T10:14:03;864.55;;;805.17;;
3591;SDS011;1810;48.720;9.094;2023-05-21T10:16:33;906.80;;;843.53;;
3591;SDS011;1810;48.720;9.094;2023-05-21T10:19:03;888.70;;;826.28;;
3591;SDS011;1810;48.720;9.094;2023-05-21T10:21:36;868.13;;;807.40;;
3591;SDS011;1810;48.720;9.094;2023-05-21T10:24:06;919.50;;;852.67;;
3591;SDS011;1810;48.720;9.094;2023-05-21T10:26:35;861.13;;;801.97;;
3591;SDS011;1810;48.720;9.094;2023-05-21T10:29:06;854.30;;;796.30;;
3591;SDS011;1810;48.720;9.094;2023-05-21T10:31:35;874.58;;;813.83;;
3591;SDS011;1810;48.720;9.094;2023-05-21T10:34:07;850.53;;;791.92;;
3591;SDS011;1810;48.720;9.094;2023-05-21T10:36:37;854.35;;;796.13;;
3591;SDS011;1810;48.720;9.094;2023-05-21T10:39:06;896.88;;;833.55;;
3591;SDS011;1810;48.720;9.094;2023-05-21T10:41:37;873.95;;;813.47;;
3591;SDS011;1810;48.720;9.094;2023-05-21T10:44:14;858.25;;;799.83;;
3591;SDS011;1810;48.720;9.094;2023-05-21T10:49:58;859.40;;;800.55;;
3591;SDS011;1810;48.720;9.094;2023-05-21T10:52:44;855.70;;;797.35;;
3591;SDS011;1810;48.720;9.094;2023-05-21T10:55:25;860.33;;;801.10;;
3591;SDS011;1810;48.720;9.094;2023-05-21T10:58:08;835.63;;;779.53;;
3591;SDS011;1810;48.720;9.094;2023-05-21T11:00:45;902.00;;;839.40;;
3591;SDS011;1810;48.720;9.094;2023-05-21T11:03:13;839.30;;;782.75;;
3591;SDS011;1810;48.720;9.094;2023-05-21T11:05:51;851.83;;;793.67;;
3591;SDS011;1810;48.720;9.094;2023-05-21T11:08:22;839.05;;;782.40;;
3591;SDS011;1810;48.720;9.094;2023-05-21T11:10:51;842.03;;;785.58;;
3591;SDS011;1810;48.720;9.094;2023-05-21T11:13:20;843.53;;;786.95;;
3591;SDS011;1810;48.720;9.094;2023-05-21T11:16:05;834.10;;;778.00;;
3591;SDS011;1810;48.720;9.094;2023-05-21T11:21:22;785.95;;;734.75;;
3591;SDS011;1810;48.720;9.094;2023-05-21T11:23:54;826.72;;;771.50;;
3591;SDS011;1810;48.720;9.094;2023-05-21T11:26:23;819.35;;;765.00;;
3591;SDS011;1810;48.720;9.094;2023-05-21T11:29:04;829.90;;;774.28;;
3591;SDS011;1810;48.720;9.094;2023-05-21T11:31:34;819.80;;;765.55;;
3591;SDS011;1810;48.720;9.094;2023-05-21T11:34:13;816.22;;;762.08;;
3591;SDS011;1810;48.720;9.094;2023-05-21T11:36:44;867.72;;;808.38;;
3591;SDS011;1810;48.720;9.094;2023-05-21T11:39:14;810.55;;;757.03;;
3591;SDS011;1810;48.720;9.094;2023-05-21T11:41:50;787.95;;;736.33;;
3591;SDS011;1810;48.720;9.094;2023-05-21T11:44:20;890.08;;;827.92;;
3591;SDS011;1810;48.720;9.094;2023-05-21T11:47:06;818.05;;;764.08;;
3591;SDS011;1810;48.720;9.094;2023-05-21T11:49:35;800.35;;;747.35;;
3591;SDS011;1810;48.720;9.094;2023-05-21T11:52:06;817.03;;;763.13;;
3591;SDS011;1810;48.720;9.094;2023-05-21T11:54:38;792.70;;;740.78;;
3591;SDS011;1810;48.720;9.094;2023-05-21T11:57:11;798.17;;;745.72;;
3591;SDS011;1810;48.720;9.094;2023-05-21T11:59:41;787.67;;;736.17;;
3591;SDS011;1810;48.720;9.094;2023-05-21T12:02:13;790.83;;;738.75;;
3591;SDS011;1810;48.720;9.094;2023-05-21T12:04:43;793.33;;;740.78;;
3591;SDS011;1810;48.720;9.094;2023-05-21T12:07:15;756.25;;;707.30;;
3591;SDS011;1810;48.720;9.094;2023-05-21T12:09:45;769.80;;;719.58;;
3591;SDS011;1810;48.720;9.094;2023-05-21T12:12:15;783.60;;;732.47;;
3591;SDS011;1810;48.720;9.094;2023-05-21T12:14:44;798.17;;;745.78;;
3591;SDS011;1810;48.720;9.094;2023-05-21T12:17:14;768.10;;;718.53;;
3591;SDS011;1810;48.720;9.094;2023-05-21T12:19:44;764.90;;;715.28;;
3591;SDS011;1810;48.720;9.094;2023-05-21T12:22:14;747.22;;;699.35;;
3591;SDS011;1810;48.720;9.094;2023-05-21T12:24:45;759.45;;;710.70;;
3591;SDS011;1810;48.720;9.094;2023-05-21T12:27:14;758.05;;;708.97;;
3591;SDS011;1810;48.720;9.094;2023-05-21T12:29:43;784.75;;;733.97;;
3591;SDS011;1810;48.720;9.094;2023-05-21T12:32:15;769.08;;;719.15;;
3591;SDS011;1810;48.720;9.094;2023-05-21T12:34:44;763.90;;;714.45;;
3591;SDS011;1810;48.720;9.094;2023-05-21T12:37:15;788.88;;;737.00;;
3591;SDS011;1810;48.720;9.094;2023-05-21T12:39:46;753.05;;;704.75;;
3591;SDS011;1810;48.720;9.094;2023-05-21T12:42:15;755.28;;;706.60;;
3591;SDS011;1810;48.720;9.094;2023-05-21T12:44:50;776.20;;;725.92;;
3591;SDS011;1810;48.720;9.094;2023-05-21T12:47:21;759.60;;;710.50;;
3591;SDS011;1810;48.720;9.094;2023-05-21T12:49:52;789.75;;;738.35;;
3591;SDS011;1810;48.720;9.094;2023-05-21T12:52:25;772.70;;;722.17;;
3591;SDS011;1810;48.720;9.094;2023-05-21T12:54:54;764.78;;;715.25;;
3591;SDS011;1810;48.720;9.094;2023-05-21T12:57:24;766.70;;;717.42;;
3591;SDS011;1810;48.720;9.094;2023-05-21T12:59:53;788.50;;;736.25;;
3591;SDS011;1810;48.720;9.094;2023-05-21T13:02:23;742.17;;;694.55;;
3591;SDS011;1810;48.720;9.094;2023-05-21T13:04:53;765.05;;;716.08;;
3591;SDS011;1810;48.720;9.094;2023-05-21T13:07:23;757.17;;;708.83;;
3591;SDS011;1810;48.720;9.094;2023-05-21T13:09:54;747.05;;;699.35;;
3591;SDS011;1810;48.720;9.094;2023-05-21T13:12:23;761.97;;;713.33;;
3591;SDS011;1810;48.720;9.094;2023-05-21T13:14:54;760.65;;;711.33;;
3591;SDS011;1810;48.720;9.094;2023-05-21T13:17:25;789.72;;;738.10;;
3591;SDS011;1810;48.720;9.094;2023-05-21T13:20:04;774.33;;;724.38;;
3591;SDS011;1810;48.720;9.094;2023-05-21T13:22:38;755.70;;;707.00;;
3591;SDS011;1810;48.720;9.094;2023-05-21T13:25:08;790.75;;;738.88;;
3591;SDS011;1810;48.720;9.094;2023-05-21T13:27:37;754.28;;;705.72;;
3591;SDS011;1810;48.720;9.094;2023-05-21T13:30:06;770.10;;;719.95;;
3591;SDS011;1810;48.720;9.094;2023-05-21T13:32:37;747.60;;;699.85;;
3591;SDS011;1810;48.720;9.094;2023-05-21T13:35:06;753.30;;;704.97;;
3591;SDS011;1810;48.720;9.094;2023-05-21T13:37:38;752.35;;;704.17;;
3591;SDS011;1810;48.720;9.094;2023-05-21T13:40:08;760.55;;;711.40;;
3591;SDS011;1810;48.720;9.094;2023-05-21T13:42:40;791.38;;;740.03;;
3591;SDS011;1810;48.720;9.094;2023-05-21T13:45:10;747.92;;;700.22;;
3591;SDS011;1810;48.720;9.094;2023-05-21T13:47:40;758.95;;;709.67;;
3591;SDS011;1810;48.720;9.094;2023-05-21T13:50:09;727.05;;;680.85;;
3591;SDS011;1810;48.720;9.094;2023-05-21T13:52:40;729.60;;;683.45;;
3591;SDS011;1810;48.720;9.094;2023-05-21T13:55:08;724.33;;;678.58;;
3591;SDS011;1810;48.720;9.094;2023-05-21T13:57:37;754.65;;;706.15;;
3591;SDS011;1810;48.720;9.094;2023-05-21T14:00:06;799.05;;;746.38;;
3591;SDS011;1810;48.720;9.094;2023-05-21T14:02:41;704.05;;;660.90;;
3591;SDS011;1810;48.720;9.094;2023-05-21T14:05:11;702.03;;;659.55;;
3591;SDS011;1810;48.720;9.094;2023-05-21T14:07:41;726.10;;;681.03;;
3591;SDS011;1810;48.720;9.094;2023-05-21T14:10:12;749.70;;;701.80;;
3591;SDS011;1810;48.720;9.094;2023-05-21T14:12:41;725.13;;;679.67;;
3591;SDS011;1810;48.720;9.094;2023-05-21T14:15:11;733.03;;;686.63;;
3591;SDS011;1810;48.720;9.094;2023-05-21T14:17:39;732.22;;;685.47;;
3591;SDS011;1810;48.720;9.094;2023-05-21T14:20:08;725.03;;;679.03;;
3591;SDS011;1810;48.720;9.094;2023-05-21T14:22:37;724.00;;;679.03;;
3591;SDS011;1810;48.720;9.094;2023-05-21T14:25:07;717.58;;;673.17;;
3591;SDS011;1810;48.720;9.094;2023-05-21T14:27:36;707.65;;;664.00;;
3591;SDS011;1810;48.720;9.094;2023-05-21T14:30:06;705.88;;;662.55;;
3591;SDS011;1810;48.720;9.094;2023-05-21T14:32:35;751.85;;;704.05;;
3591;SDS011;1810;48.720;9.094;2023-05-21T14:35:04;698.80;;;656.15;;
3591;SDS011;1810;48.720;9.094;2023-05-21T14:37:33;726.25;;;680.65;;
3591;SDS011;1810;48.720;9.094;2023-05-21T14:40:02;704.50;;;660.97;;
3591;SDS011;1810;48.720;9.094;2023-05-21T14:42:34;733.05;;;687.03;;